createdAt,value
2023-03-23T15:58:14.059Z,1.90
2023-03-23T16:00:41.429Z,1.50
2023-03-23T16:03:12.323Z,1.55
2023-03-23T16:05:39.278Z,1.48
2023-03-23T16:08:06.420Z,1.40
2023-03-23T16:10:33.019Z,1.35
2023-03-23T16:12:59.647Z,1.58
2023-03-23T16:15:26.621Z,1.80
2023-03-23T16:17:53.361Z,1.40
2023-03-23T16:20:21.994Z,1.35
2023-03-23T16:22:49.405Z,1.35
2023-03-23T16:25:16.795Z,1.55
2023-03-23T16:27:43.920Z,2.03
2023-03-23T16:30:23.405Z,2.00
2023-03-23T16:32:50.070Z,1.80
2023-03-23T16:35:19.139Z,1.60
2023-03-23T16:37:52.079Z,1.50
2023-03-23T16:40:36.508Z,1.60
2023-03-23T16:43:08.298Z,1.75
2023-03-23T16:45:37.549Z,2.15
2023-03-23T16:48:05.436Z,2.00
2023-03-23T16:50:32.670Z,1.85
2023-03-23T16:52:59.324Z,2.50
2023-03-23T16:55:27.308Z,2.38
2023-03-23T16:58:05.456Z,2.08
2023-03-23T17:00:36.168Z,1.98
2023-03-23T17:03:03.113Z,1.75
2023-03-23T17:05:29.905Z,2.40
2023-03-23T17:07:56.896Z,2.17
2023-03-23T17:10:27.048Z,2.42
2023-03-23T17:12:54.916Z,2.00
2023-03-23T17:15:21.670Z,1.90
2023-03-23T17:17:48.333Z,2.00
2023-03-23T17:20:15.243Z,2.20
2023-03-23T17:22:42.064Z,1.90
2023-03-23T17:25:10.064Z,2.13
2023-03-23T17:27:37.266Z,2.78
2023-03-23T17:30:08.673Z,2.17
2023-03-23T17:32:36.580Z,2.58
2023-03-23T17:35:05.449Z,2.47
2023-03-23T17:37:33.761Z,2.28
2023-03-23T17:40:00.444Z,2.25
2023-03-23T17:42:28.001Z,2.10
2023-03-23T17:44:54.797Z,2.60
2023-03-23T17:47:21.446Z,2.15
2023-03-23T17:49:48.115Z,2.10
2023-03-23T17:52:14.734Z,2.40
2023-03-23T17:54:41.511Z,2.30
2023-03-23T17:57:08.340Z,2.30
2023-03-23T17:59:35.026Z,2.03
2023-03-23T18:02:01.803Z,1.90
2023-03-23T18:04:28.538Z,1.85
2023-03-23T18:06:56.447Z,1.92
2023-03-23T18:09:23.945Z,1.92
2023-03-23T18:11:51.048Z,2.17
2023-03-23T18:14:17.926Z,2.40
2023-03-23T18:16:44.914Z,2.00
2023-03-23T18:19:11.786Z,2.20
2023-03-23T18:21:39.008Z,2.33
2023-03-23T18:24:06.213Z,2.40
2023-03-23T18:26:32.841Z,1.90
2023-03-23T18:28:59.587Z,2.70
2023-03-23T18:31:26.251Z,2.30
2023-03-23T18:33:54.949Z,2.40
2023-03-23T18:36:24.005Z,2.30
2023-03-23T18:38:51.185Z,2.00
2023-03-23T18:41:18.518Z,1.90
2023-03-23T18:43:46.134Z,2.40
2023-03-23T18:46:13.012Z,2.33
2023-03-23T18:48:39.673Z,2.17
2023-03-23T18:51:07.159Z,1.85
2023-03-23T18:53:33.856Z,2.20
2023-03-23T18:56:05.913Z,1.85
2023-03-23T18:58:32.805Z,3.05
2023-03-23T19:01:03.677Z,2.03
2023-03-23T19:03:31.062Z,2.00
2023-03-23T19:05:59.702Z,2.55
2023-03-23T19:08:27.923Z,2.90
2023-03-23T19:11:01.096Z,2.65
2023-03-23T19:13:34.115Z,2.42
2023-03-23T19:16:01.022Z,3.10
2023-03-23T19:18:28.166Z,2.92
2023-03-23T19:21:13.492Z,2.85
2023-03-23T19:23:41.901Z,2.33
2023-03-23T19:26:23.867Z,2.35
2023-03-23T19:31:23.618Z,2.15
2023-03-23T19:33:52.905Z,1.95
2023-03-23T19:50:56.282Z,2.38
2023-03-23T19:53:23.430Z,2.53
2023-03-23T19:55:50.378Z,2.17
2023-03-23T19:58:17.362Z,2.42
2023-03-23T20:00:44.752Z,2.28
2023-03-23T20:03:12.260Z,1.93
2023-03-23T20:05:40.654Z,1.97
2023-03-23T20:08:09.156Z,2.35
2023-03-23T20:10:43.228Z,2.37
2023-03-23T20:13:11.816Z,2.13
2023-03-23T20:21:56.338Z,2.37
2023-03-23T20:24:23.107Z,2.10
2023-03-23T20:26:49.778Z,2.37
2023-03-23T20:29:16.554Z,2.10
2023-03-23T20:31:43.742Z,2.00
2023-03-23T20:34:13.012Z,2.00
2023-03-23T20:36:42.319Z,1.87
2023-03-23T20:39:12.036Z,2.90
2023-03-23T20:41:40.351Z,1.98
2023-03-23T20:44:09.294Z,2.00
2023-03-23T20:46:36.608Z,2.00
2023-03-23T20:49:03.365Z,1.93
2023-03-23T20:51:30.317Z,1.47
2023-03-23T20:53:57.119Z,1.53
2023-03-23T20:56:25.366Z,1.50
2023-03-23T20:58:52.118Z,1.97
2023-03-23T21:01:18.818Z,1.90
2023-03-23T21:03:45.686Z,1.80
2023-03-23T21:06:12.383Z,2.23
2023-03-23T21:08:40.894Z,2.20
2023-03-23T21:14:03.239Z,2.10
2023-03-23T21:16:29.901Z,2.80
2023-03-23T21:18:56.729Z,3.00
2023-03-23T21:21:27.260Z,2.23
2023-03-23T21:23:55.687Z,2.40
2023-03-23T21:26:24.356Z,2.70
2023-03-23T21:28:53.840Z,2.37
2023-03-23T21:31:23.390Z,2.40
2023-03-23T21:33:50.365Z,2.70
2023-03-23T21:36:17.242Z,2.90
2023-03-23T21:38:44.758Z,2.60
2023-03-23T21:41:14.601Z,2.50
2023-03-23T21:43:41.601Z,2.40
2023-03-23T21:46:09.390Z,2.10
2023-03-23T21:48:38.660Z,2.30
2023-03-23T21:51:10.127Z,2.10
2023-03-23T21:53:37.205Z,2.80
2023-03-23T21:56:06.112Z,2.20
2023-03-23T21:58:33.430Z,1.97
2023-03-23T22:01:01.205Z,2.57
2023-03-23T22:03:32.168Z,2.40
2023-03-23T22:06:05.326Z,2.10
2023-03-23T22:08:32.217Z,2.30
2023-03-23T22:11:01.863Z,2.37
2023-03-23T22:13:30.697Z,2.47
2023-03-23T22:15:58.913Z,2.03
2023-03-23T22:18:29.966Z,2.07
2023-03-23T22:21:01.029Z,1.50
2023-03-23T22:23:27.719Z,1.80
2023-03-23T22:25:55.900Z,1.90
2023-03-23T22:28:24.797Z,1.83
2023-03-23T22:30:51.410Z,1.90
2023-03-23T22:33:18.129Z,1.90
2023-03-23T22:35:46.187Z,2.10
2023-03-23T22:38:14.862Z,2.53
2023-03-23T22:40:42.823Z,2.17
2023-03-23T22:43:10.103Z,2.30
2023-03-23T22:45:36.892Z,2.10
2023-03-23T22:48:05.693Z,2.27
2023-03-23T22:50:32.503Z,1.90
2023-03-23T22:52:59.422Z,2.70
2023-03-23T22:55:27.108Z,1.90
2023-03-23T22:57:53.830Z,1.93
2023-03-23T23:00:21.063Z,2.47
2023-03-23T23:02:49.064Z,2.97
2023-03-23T23:05:16.170Z,3.77
2023-03-23T23:07:42.851Z,3.70
2023-03-23T23:10:09.730Z,4.07
2023-03-23T23:12:36.982Z,3.40
2023-03-23T23:15:06.072Z,2.90
2023-03-23T23:17:34.788Z,2.83
2023-03-23T23:20:05.665Z,2.93
2023-03-23T23:22:35.634Z,2.55
2023-03-23T23:25:05.339Z,2.20
2023-03-23T23:27:32.449Z,3.13
2023-03-23T23:30:00.226Z,2.67
2023-03-23T23:32:31.847Z,2.80
2023-03-23T23:34:58.673Z,2.20
2023-03-23T23:37:25.271Z,3.10
2023-03-23T23:39:54.128Z,2.47
2023-03-23T23:42:20.731Z,2.50
2023-03-23T23:44:47.507Z,2.63
2023-03-23T23:47:14.288Z,2.97
2023-03-23T23:49:41.250Z,2.40
2023-03-23T23:52:08.713Z,2.57
2023-03-23T23:54:37.408Z,2.90
2023-03-23T23:57:04.987Z,2.57
2023-03-23T23:59:31.772Z,2.77
